Flight Track Log - Related Links

Times and Time Zones

All times are in EDT time to prevent confusion due to time zone crossing. See the FDX1482 flight status page for this flight to view local times or setup timezone preferences in your user account.

Time Position Orientation Groundspeed Altitude Reporting Facility
EDT Latitude Longitude Course Direction KTS MPH feet Rate Location/Type
Sat 06:55:53 AM 35.0500 -89.9667 360° North 148 170 1,500  Level KMEM
Sat 06:57:01 AM 35.1000 -89.9667 360° North 206 237 3,600 2,531 Climbing KMEM
Sat 06:58:01 AM 35.1500 -89.9000 47° Northeast 300 345 6,900 3,500 Climbing KMEM
Sat 06:59:01 AM 35.1500 -89.7833 90° East 308 354 10,600 2,967 Climbing KMEM
Sat 06:59:32 AM 35.1581 -89.7375 78° East 366 421 11,400 2,374 Climbing Memphis Center
Sat 07:00:32 AM 35.1803 -89.6000 79° East 397 457 14,200 3,033 Climbing Memphis Center
Sat 07:02:32 AM 35.2197 -89.2894 81° East 442 509 20,500 2,800 Climbing Memphis Center
Sat 07:03:32 AM 35.2472 -89.1264 78° East 470 541 22,600 2,250 Climbing Memphis Center
Sat 07:04:32 AM 35.3019 -88.9653 67° East 495 570 25,000 2,050 Climbing Memphis Center
Sat 07:05:32 AM 35.3667 -88.8039 64° Northeast 517 595 26,700 815 Climbing Memphis Center
Sat 07:11:32 AM 35.7500 -87.7660 64° Northeast 35,000 737 Climbing FlightAware ADS-B
Sat 07:12:17 AM 35.8000 -87.6280 66° East 35,000  Level FlightAware ADS-B
Sat 07:12:57 AM 35.8440 -87.5080 66° East 35,000  Level FlightAware ADS-B
Sat 07:13:37 AM 35.8880 -87.3860 66° East 35,000  Level FlightAware ADS-B
Sat 07:14:22 AM 35.9360 -87.2510 66° East 35,000  Level FlightAware ADS-B
Sat 07:15:02 AM 35.9790 -87.1320 66° East 35,000  Level FlightAware ADS-B
Sat 07:15:42 AM 36.0210 -87.0120 67° East 35,000  Level FlightAware ADS-B
Sat 07:16:27 AM 36.0690 -86.8770 66° East 35,000  Level FlightAware ADS-B
Sat 07:16:48 AM 36.0932 -86.8092 66° East 566 651 35,000  Level FlightAware ADS-B
Sat 07:17:20 AM 36.1275 -86.7127 66° East 568 654 35,000  Level FlightAware ADS-B
Sat 07:17:52 AM 36.1608 -86.6159 67° East 556 640 35,000  Level FlightAware ADS-B
Sat 07:18:23 AM 36.1914 -86.5189 69° East 563 648 35,000  Level FlightAware ADS-B
Sat 07:18:58 AM 36.2257 -86.4116 68° East 578 665 35,000  Level FlightAware ADS-B
Sat 07:19:30 AM 36.2566 -86.3151 68° East 580 667 35,000  Level FlightAware ADS-B
Sat 07:20:00 AM 36.2865 -86.2219 68° East 586 674 35,000  Level FlightAware ADS-B
Sat 07:20:30 AM 36.3157 -86.1308 68° East 583 671 35,000  Level FlightAware ADS-B
Sat 07:21:01 AM 36.3452 -86.0381 68° East 550 633 35,000  Level FlightAware ADS-B
Sat 07:22:02 AM 36.4048 -85.8508 68° East 570 656 35,000  Level FlightAware ADS-B
Sat 07:22:32 AM 36.4344 -85.7576 68° East 572 658 35,000  Level FlightAware ADS-B
Sat 07:23:05 AM 36.4652 -85.6595 69° East 569 655 35,000  Level FlightAware ADS-B
Sat 07:23:35 AM 36.4945 -85.5662 69° East 571 657 35,000  Level FlightAware ADS-B
Sat 07:24:06 AM 36.5246 -85.4699 69° East 568 654 35,000  Level FlightAware ADS-B
Sat 07:24:41 AM 36.5575 -85.3639 69° East 578 665 35,000  Level FlightAware ADS-B
Sat 07:25:13 AM 36.5881 -85.2658 69° East 600 690 35,000  Level FlightAware ADS-B
Sat 07:25:45 AM 36.6188 -85.1655 69° East 580 667 35,000  Level FlightAware ADS-B
Sat 07:26:16 AM 36.6473 -85.0733 69° East 567 652 35,000  Level FlightAware ADS-B
Sat 07:26:50 AM 36.6806 -84.9655 69° East 582 670 35,000  Level FlightAware ADS-B
Sat 07:27:23 AM 36.7110 -84.8668 69° East 571 657 35,000  Level FlightAware ADS-B
Sat 07:27:54 AM 36.7407 -84.7698 69° East 556 640 35,000  Level FlightAware ADS-B
Sat 07:28:25 AM 36.7692 -84.6758 69° East 567 652 35,000  Level FlightAware ADS-B
Sat 07:28:55 AM 36.7972 -84.5830 69° East 564 649 35,000  Level FlightAware ADS-B
Sat 07:29:26 AM 36.8262 -84.4871 69° East 588 677 35,000  Level FlightAware ADS-B
Sat 07:29:56 AM 36.8541 -84.3940 69° East 574 661 35,000  Level FlightAware ADS-B
Sat 07:30:26 AM 36.8822 -84.3008 69° East 564 649 35,000  Level FlightAware ADS-B
Sat 07:30:56 AM 36.9099 -84.2075 70° East 574 661 35,000  Level FlightAware ADS-B
Sat 07:31:26 AM 36.9378 -84.1137 70° East 560 644 35,000  Level FlightAware ADS-B
Sat 07:31:56 AM 36.9662 -84.0185 70° East 585 673 35,000  Level FlightAware ADS-B
Sat 07:33:03 AM 37.0284 -83.8085 70° East 572 658 35,000  Level FlightAware ADS-B
Sat 07:33:34 AM 37.0562 -83.7131 70° East 575 662 35,000  Level FlightAware ADS-B
Sat 07:34:04 AM 37.0838 -83.6190 70° East 563 648 35,000  Level FlightAware ADS-B
Sat 07:34:40 AM 37.1168 -83.5060 70° East 575 662 35,000  Level FlightAware ADS-B
Sat 07:35:16 AM 37.1501 -83.3919 70° East 567 652 35,000  Level FlightAware ADS-B
Sat 07:35:48 AM 37.1786 -83.2928 70° East 599 689 35,000  Level FlightAware ADS-B
Sat 07:36:41 AM 37.2270 -83.1248 70° East 578 665 35,000  Level FlightAware ADS-B
Sat 07:37:11 AM 37.2541 -83.0307 70° East 576 663 35,000  Level FlightAware ADS-B
Sat 07:40:22 AM 37.4237 -82.4306 70° East 578 665 35,000  Level FlightAware ADS-B
Sat 07:40:52 AM 37.4510 -82.3338 70° East 589 678 35,000  Level FlightAware ADS-B
Sat 07:41:28 AM 37.4823 -82.2208 71° East 590 679 35,000  Level FlightAware ADS-B
Sat 07:42:01 AM 37.5111 -82.1161 71° East 582 670 35,000  Level FlightAware ADS-B
Sat 07:42:31 AM 37.5377 -82.0198 71° East 577 664 35,000  Level FlightAware ADS-B
Sat 07:43:02 AM 37.5640 -81.9239 71° East 575 662 35,000  Level FlightAware ADS-B
Sat 07:43:37 AM 37.5942 -81.8143 71° East 557 641 35,000  Level FlightAware ADS-B
Sat 07:44:07 AM 37.6201 -81.7187 71° East 589 678 35,000  Level FlightAware ADS-B
Sat 07:45:07 AM 37.6690 -81.5410 71° East 35,000  Level FlightAware ADS-B
Sat 07:45:16 AM 37.6781 -81.5048 72° East 567 652 35,000  Level FlightAware ADS-B
Sat 07:45:47 AM 37.7044 -81.4071 71° East 568 654 35,000  Level FlightAware ADS-B
Sat 07:46:32 AM 37.7400 -81.2730 71° East 35,000  Level FlightAware ADS-B
Sat 07:47:12 AM 37.7720 -81.1500 72° East 35,000  Level FlightAware ADS-B
Sat 07:48:00 AM 37.7962 -80.9943 79° East 35,000  Level FlightAware ADS-B
Sat 07:48:37 AM 37.8090 -80.8810 82° East 35,000  Level FlightAware ADS-B
Sat 07:48:59 AM 37.8174 -80.8043 82° East 552 635 35,000  Level FlightAware ADS-B
Sat 07:50:02 AM 37.8400 -80.6070 82° East 35,000  Level FlightAware ADS-B
Sat 07:50:42 AM 37.8550 -80.4890 81° East 35,000  Level FlightAware ADS-B
Sat 07:51:00 AM 37.8622 -80.4339 81° East 548 631 35,000 -1,127 Level Indianapolis Center
Sat 07:56:47 AM 38.2350 -79.4330 81° East 33,200 -1,139 Descending FlightAware ADS-B
Sat 07:59:37 AM 38.3710 -78.9320 71° East 27,000 -1,341 Descending FlightAware ADS-B
Sat 08:00:12 AM 38.3980 -78.8260 72° East 27,000 -1,226 Level FlightAware ADS-B
Sat 08:01:12 AM 38.4450 -78.6470 71° East 24,700 -1,261 Descending FlightAware ADS-B
Sat 08:01:52 AM 38.4760 -78.5220 72° East 23,200 -1,207 Descending FlightAware ADS-B
Sat 08:02:27 AM 38.5000 -78.4260 72° East 22,500 -1,170 Descending FlightAware ADS-B
Sat 08:03:02 AM 38.5240 -78.3330 72° East 21,700 -1,169 Descending FlightAware ADS-B
Sat 08:03:52 AM 38.5570 -78.2020 72° East 20,600 -1,162 Descending FlightAware ADS-B
Sat 08:04:32 AM 38.5870 -78.0820 72° East 19,600 -1,154 Descending FlightAware ADS-B
Sat 08:05:17 AM 38.6160 -77.9640 73° East 19,000 -1,140 Descending FlightAware ADS-B
Sat 08:05:52 AM 38.6390 -77.8680 73° East 19,000 -1,156 Level FlightAware ADS-B
Sat 08:06:37 AM 38.6480 -77.7480 84° East 18,400 -1,203 Descending FlightAware ADS-B
Sat 08:07:17 AM 38.6550 -77.6390 85° East 17,700 -1,225 Descending FlightAware ADS-B
Sat 08:08:02 AM 38.6620 -77.5160 86° East 16,900 -1,234 Descending FlightAware ADS-B
Sat 08:08:42 AM 38.6680 -77.4130 86° East 16,300 -1,244 Descending FlightAware ADS-B
Sat 08:09:27 AM 38.6750 -77.2950 86° East 15,700 -1,263 Descending FlightAware ADS-B
Sat 08:10:07 AM 38.6810 -77.1970 85° East 14,400 -1,295 Descending FlightAware ADS-B
Sat 08:10:52 AM 38.6860 -77.0950 86° East 13,100 -1,252 Descending FlightAware ADS-B
Sat 08:11:32 AM 38.6920 -77.0050 85° East 11,900 -1,215 Descending FlightAware ADS-B
Sat 08:12:12 AM 38.6960 -76.9190 87° East 11,000 -1,171 Descending FlightAware ADS-B
Sat 08:12:57 AM 38.7010 -76.8340 86° East 10,100 -1,156 Descending FlightAware ADS-B
Sat 08:13:02 AM 38.7010 -76.8290 90° East 10,000 -1,152 Descending FlightAware ADS-B
Sat 08:13:37 AM 38.7060 -76.7560 85° East 9,200 -1,151 Descending FlightAware ADS-B
Sat 08:13:52 AM 38.7120 -76.7290 74° East 8,900 -1,132 Descending FlightAware ADS-B
Sat 08:14:12 AM 38.7260 -76.6950 62° Northeast 8,300 -1,130 Descending FlightAware ADS-B
Sat 08:14:47 AM 38.7540 -76.6320 60° Northeast 6,900 -1,094 Descending FlightAware ADS-B
Sat 08:15:02 AM 38.7650 -76.6070 61° Northeast 6,600 -959 Descending FlightAware ADS-B
Sat 08:15:37 AM 38.7880 -76.5550 60° Northeast 6,100 -947 Descending FlightAware ADS-B
Sat 08:15:47 AM 38.8000 -76.5410 42° Northeast 6,100 -958 Level FlightAware ADS-B
Sat 08:16:07 AM 38.8260 -76.5270 23° Northeast 5,600 -993 Descending FlightAware ADS-B
Sat 08:16:12 AM 38.8350 -76.5260 North 5,400 -953 Descending FlightAware ADS-B
Sat 08:16:37 AM 38.8660 -76.5350 347° North 4,700 -925 Descending FlightAware ADS-B
Sat 08:17:02 AM 38.8970 -76.5450 346° North 4,200 -842 Descending FlightAware ADS-B
Sat 08:17:32 AM 38.9350 -76.5570 346° North 4,100 -798 Descending FlightAware ADS-B
Sat 08:17:52 AM 38.9600 -76.5650 346° North 3,900 -902 Descending FlightAware ADS-B
Sat 08:18:17 AM 38.9860 -76.5730 347° North 3,600 -941 Descending FlightAware ADS-B
Sat 08:18:57 AM 39.0290 -76.5870 346° North 3,000 -984 Descending FlightAware ADS-B
Sat 08:19:17 AM 39.0470 -76.5940 343° North 2,800 -1,023 Descending FlightAware ADS-B
Sat 08:20:25 AM 39.1167 -76.6167 343° North 193 222 1,500 -985 Descending Potomac TRACON
Sat 08:21:31 AM 39.1500 -76.6500 322° Northwest 139 160 600 -818 Descending Potomac TRACON
Sat 08:23:00 AM 39.1667 -76.6667 339° North  Level FlightAware Approximate
Sat 08:30:00 AM 39.1754 -76.6683 339° North  Level Estimated
Sat 08:31:00 AM 39.1754 -76.6683 339° North  Level Estimated
Sat 08:32:00 AM 39.1754 -76.6683 339° North  Level Estimated

Login

Don't have an account? Register now (free) for customized features, flight alerts, and more!